createdAt,value
2022-09-22T00:01:32.426Z,102655.03
2022-09-22T00:04:02.709Z,102632.69
2022-09-22T00:06:32.146Z,102647.63
2022-09-22T00:09:01.579Z,102594.47
2022-09-22T00:11:29.946Z,102631.56
2022-09-22T00:13:58.346Z,102648.78
2022-09-22T00:16:30.528Z,102647.53
2022-09-22T00:18:57.668Z,102650.03
2022-09-22T00:21:25.582Z,102645.53
2022-09-22T00:23:52.520Z,102593.00
2022-09-22T00:26:21.969Z,102635.03
2022-09-22T00:28:50.194Z,102641.84
2022-09-22T00:31:19.277Z,102649.31
2022-09-22T00:33:50.984Z,102634.44
2022-09-22T00:36:19.898Z,102643.16
2022-09-22T00:38:46.528Z,102644.19
2022-09-22T00:41:21.040Z,102581.50
2022-09-22T00:43:50.060Z,102458.19
2022-09-22T00:46:22.592Z,102572.00
2022-09-22T00:48:55.648Z,102590.66
2022-09-22T00:51:27.330Z,102641.56
2022-09-22T00:53:57.539Z,102609.72
2022-09-22T00:56:29.380Z,102449.13
2022-09-22T00:59:01.304Z,102549.69
2022-09-22T01:01:28.047Z,102510.75
2022-09-22T01:03:56.589Z,102638.31
2022-09-22T01:06:27.474Z,102598.13
2022-09-22T01:08:54.945Z,102490.72
2022-09-22T01:11:22.744Z,102621.53
2022-09-22T01:13:59.458Z,102460.31
2022-09-22T01:16:40.512Z,102555.50
2022-09-22T01:19:42.875Z,102459.91
2022-09-22T01:22:25.091Z,102606.84
2022-09-22T01:25:16.141Z,102620.72
2022-09-22T01:28:11.133Z,102609.09
2022-09-22T01:30:46.518Z,102609.94
2022-09-22T01:33:26.447Z,102610.56
2022-09-22T01:36:02.925Z,102600.59
2022-09-22T01:38:35.851Z,102485.13
2022-09-22T01:41:06.190Z,102517.22
2022-09-22T01:43:40.489Z,102577.84
2022-09-22T01:46:15.500Z,102603.31
2022-09-22T01:48:46.163Z,102605.19
2022-09-22T01:51:18.317Z,102600.44
2022-09-22T01:53:52.336Z,102604.38
2022-09-22T01:56:21.723Z,102592.97
2022-09-22T01:58:53.529Z,102594.84
2022-09-22T02:01:25.929Z,102556.34
2022-09-22T02:03:58.310Z,102591.13
2022-09-22T02:06:30.873Z,102581.56
2022-09-22T02:09:02.463Z,102583.44
2022-09-22T02:11:29.091Z,102577.63
2022-09-22T02:13:57.293Z,102573.91
2022-09-22T02:16:26.068Z,102565.81
2022-09-22T02:19:06.035Z,102568.72
2022-09-22T02:21:39.755Z,102560.00
2022-09-22T02:24:09.190Z,102546.38
2022-09-22T02:26:36.689Z,102561.47
2022-09-22T02:29:11.251Z,102557.13
2022-09-22T02:31:40.331Z,102553.81
2022-09-22T02:34:08.033Z,102557.16
2022-09-22T02:36:51.901Z,102542.66
2022-09-22T02:39:23.346Z,102552.19
2022-09-22T02:41:59.556Z,102553.41
2022-09-22T02:44:33.939Z,102551.38
2022-09-22T02:47:06.154Z,102546.81
2022-09-22T02:49:33.502Z,102431.16
2022-09-22T02:52:00.261Z,102544.97
2022-09-22T02:54:28.212Z,102436.72
2022-09-22T02:56:55.128Z,102539.56
2022-09-22T02:59:21.716Z,102526.09
2022-09-22T03:01:48.405Z,102475.84
2022-09-22T03:04:17.086Z,102540.78
2022-09-22T03:06:43.798Z,102539.34
2022-09-22T03:09:10.482Z,102535.19
2022-09-22T03:11:37.220Z,102535.63
2022-09-22T03:14:05.454Z,102505.84
2022-09-22T03:16:32.140Z,102312.88
2022-09-22T03:18:59.180Z,102394.13
2022-09-22T03:21:27.292Z,102531.06
2022-09-22T03:23:54.172Z,102529.41
2022-09-22T03:26:21.758Z,102526.53
2022-09-22T03:28:48.431Z,102521.13
2022-09-22T03:31:15.460Z,102440.88
2022-09-22T03:33:42.465Z,102524.66
2022-09-22T03:36:09.114Z,102495.72
2022-09-22T03:38:37.238Z,102515.34
2022-09-22T03:41:03.957Z,102523.84
2022-09-22T03:43:30.618Z,102510.81
2022-09-22T03:45:58.333Z,102517.44
2022-09-22T03:48:25.514Z,102515.97
2022-09-22T03:50:52.442Z,102508.53
2022-09-22T03:53:19.553Z,102509.16
2022-09-22T03:55:47.604Z,102512.06
2022-09-22T03:58:14.316Z,102514.13
2022-09-22T04:00:41.004Z,102516.22
2022-09-22T04:03:07.667Z,102514.56
2022-09-22T04:05:34.431Z,102512.91
2022-09-22T04:08:02.555Z,102486.41
2022-09-22T04:10:29.198Z,102511.22
2022-09-22T04:12:57.199Z,102512.25
2022-09-22T04:15:24.129Z,102511.25
2022-09-22T04:17:50.787Z,102500.06
2022-09-22T04:20:17.498Z,102507.31
2022-09-22T04:22:44.123Z,102490.13
2022-09-22T04:25:11.021Z,102499.44
2022-09-22T04:27:37.966Z,102501.31
2022-09-22T04:30:08.377Z,102498.00
2022-09-22T04:32:35.349Z,102459.09
2022-09-22T04:35:02.226Z,102495.09
2022-09-22T04:37:29.145Z,102495.31
2022-09-22T04:39:57.953Z,102468.00
2022-09-22T04:42:24.694Z,102492.84
2022-09-22T04:44:51.349Z,102495.53
2022-09-22T04:47:19.348Z,102469.88
2022-09-22T04:49:46.230Z,102455.38
2022-09-22T04:52:12.935Z,102491.78
2022-09-22T04:54:39.544Z,102497.16
2022-09-22T04:57:06.235Z,102499.25
2022-09-22T04:59:32.948Z,102494.69
2022-09-22T05:01:59.577Z,102441.50
2022-09-22T05:04:27.836Z,102495.09
2022-09-22T05:06:54.634Z,102494.69
2022-09-22T05:09:21.519Z,102487.66
2022-09-22T05:11:48.168Z,102500.28
2022-09-22T05:14:15.106Z,102492.44
2022-09-22T05:16:41.775Z,102510.41
2022-09-22T05:19:08.444Z,102499.66
2022-09-22T05:21:37.220Z,102468.63
2022-09-22T05:24:04.342Z,102504.22
2022-09-22T05:26:31.106Z,102507.13
2022-09-22T05:28:57.777Z,102504.44
2022-09-22T05:31:24.449Z,102518.72
2022-09-22T05:33:51.118Z,102509.81
2022-09-22T05:36:18.038Z,102519.56
2022-09-22T05:38:46.347Z,102349.03
2022-09-22T05:41:13.002Z,102452.91
2022-09-22T05:43:40.224Z,102515.41
2022-09-22T05:46:07.274Z,102368.09
2022-09-22T05:48:34.057Z,102333.31
2022-09-22T05:51:00.782Z,102439.88
2022-09-22T05:53:27.580Z,102455.56
2022-09-22T05:55:56.136Z,102505.66
2022-09-22T05:58:23.799Z,102466.13
2022-09-22T06:00:55.904Z,102509.41
2022-09-22T06:03:23.283Z,102462.19
2022-09-22T06:05:55.102Z,102363.13
2022-09-22T06:08:21.980Z,102390.81
2022-09-22T06:10:49.239Z,102398.69
2022-09-22T06:13:18.862Z,102462.81
2022-09-22T06:15:46.425Z,102503.34
2022-09-22T06:18:15.260Z,102503.75
2022-09-22T06:20:43.088Z,102507.69
2022-09-22T06:23:09.895Z,102500.03
2022-09-22T06:25:36.600Z,102502.09
2022-09-22T06:28:05.856Z,102496.91
2022-09-22T06:30:35.980Z,102500.81
2022-09-22T06:33:02.832Z,102504.53
2022-09-22T06:35:29.717Z,102491.09
2022-09-22T06:37:57.047Z,102495.59
2022-09-22T06:40:25.944Z,102456.06
2022-09-22T06:42:57.131Z,102487.88
2022-09-22T06:45:24.007Z,102492.44
2022-09-22T06:47:52.144Z,102488.91
2022-09-22T06:50:19.001Z,102493.63
2022-09-22T06:52:45.650Z,102489.84
2022-09-22T06:55:13.659Z,102496.03
2022-09-22T06:57:40.563Z,102451.38
2022-09-22T07:00:11.235Z,102488.94
2022-09-22T07:02:38.147Z,102492.63
2022-09-22T07:05:07.049Z,102485.97
2022-09-22T07:07:35.661Z,102345.03
2022-09-22T07:10:02.591Z,102433.81
2022-09-22T07:12:29.476Z,102421.38
2022-09-22T07:15:01.422Z,102453.56
2022-09-22T07:17:28.253Z,102399.84
2022-09-22T07:19:55.066Z,102471.38
2022-09-22T07:22:35.809Z,102501.34
2022-09-22T07:25:02.753Z,102293.97
2022-09-22T07:27:34.256Z,102474.88
2022-09-22T07:30:00.740Z,102491.63
2022-09-22T07:32:27.609Z,102342.88
2022-09-22T07:34:54.586Z,102337.34
2022-09-22T07:37:21.392Z,102403.94
2022-09-22T07:39:49.768Z,102431.03
2022-09-22T07:42:16.733Z,102372.34
2022-09-22T07:44:45.436Z,102302.03
2022-09-22T07:47:12.231Z,102401.47
2022-09-22T07:49:40.349Z,102281.50
2022-09-22T07:52:07.019Z,102362.19
2022-09-22T07:54:33.935Z,102396.22
2022-09-22T07:57:02.361Z,102442.41
2022-09-22T07:59:30.177Z,102337.56
2022-09-22T08:01:57.247Z,102431.28
2022-09-22T08:04:24.361Z,102321.34
2022-09-22T08:06:53.262Z,102399.88
2022-09-22T08:09:20.444Z,102479.06
2022-09-22T08:11:47.223Z,102399.47
2022-09-22T08:14:16.799Z,102466.25
2022-09-22T08:16:44.547Z,102468.66
2022-09-22T08:19:13.040Z,102469.34
2022-09-22T08:21:48.440Z,102469.59
2022-09-22T08:24:17.142Z,102467.00
2022-09-22T08:26:48.039Z,102468.69
2022-09-22T08:29:16.410Z,102463.50
2022-09-22T08:31:43.206Z,102464.78
2022-09-22T08:34:10.049Z,102413.09
2022-09-22T08:36:37.544Z,102459.69
2022-09-22T08:39:06.588Z,102463.31
2022-09-22T08:41:42.295Z,102463.50
2022-09-22T08:44:20.073Z,102455.84
2022-09-22T08:46:47.601Z,102449.19
2022-09-22T08:49:18.451Z,102459.50
2022-09-22T08:51:51.856Z,102373.84
2022-09-22T08:54:19.434Z,102450.25
2022-09-22T08:56:52.548Z,102295.94
2022-09-22T08:59:24.026Z,102378.28
2022-09-22T09:02:01.357Z,102458.97
2022-09-22T09:04:53.595Z,102444.66
2022-09-22T09:07:29.006Z,102294.09
2022-09-22T09:10:08.269Z,102318.25
2022-09-22T09:12:52.433Z,102432.31
2022-09-22T09:15:44.174Z,102425.88
2022-09-22T09:18:14.365Z,102471.16
2022-09-22T09:20:44.932Z,102460.72
2022-09-22T09:23:16.564Z,102456.03
2022-09-22T09:25:44.197Z,102449.81
2022-09-22T09:28:14.155Z,102446.13
2022-09-22T09:30:46.132Z,102422.00
2022-09-22T09:33:23.524Z,102404.56
2022-09-22T09:35:51.757Z,102444.22
2022-09-22T09:38:25.940Z,102343.44
2022-09-22T09:40:58.599Z,102304.19
2022-09-22T09:43:26.991Z,102345.38
2022-09-22T09:46:13.002Z,102439.13
2022-09-22T09:48:57.887Z,102438.13
2022-09-22T09:51:41.228Z,102456.78
2022-09-22T09:54:11.897Z,102355.88
2022-09-22T09:57:07.786Z,102299.94
2022-09-22T09:59:35.876Z,102431.34
2022-09-22T10:02:04.553Z,102434.34
2022-09-22T10:04:33.944Z,102435.72
2022-09-22T10:07:12.097Z,102430.13
2022-09-22T10:09:40.812Z,102431.28
2022-09-22T10:12:22.026Z,102425.03
2022-09-22T10:14:50.806Z,102424.38
2022-09-22T10:17:23.203Z,102424.03
2022-09-22T10:19:50.289Z,102425.50
2022-09-22T10:22:23.870Z,102417.69
2022-09-22T10:24:57.848Z,102415.81
2022-09-22T10:27:27.435Z,102422.56
2022-09-22T10:30:13.128Z,102423.81
2022-09-22T10:32:41.805Z,102408.69
2022-09-22T10:35:26.774Z,102417.66
2022-09-22T10:37:57.332Z,102401.31
2022-09-22T10:40:27.001Z,102402.16
2022-09-22T10:42:59.847Z,102411.84
2022-09-22T10:45:40.612Z,102402.13
2022-09-22T10:48:15.088Z,102405.34
2022-09-22T10:51:03.041Z,102407.53
2022-09-22T10:53:38.711Z,102397.50
2022-09-22T10:56:14.520Z,102363.81
2022-09-22T10:58:59.198Z,102392.53
2022-09-22T11:01:40.928Z,102378.31
2022-09-22T11:04:40.379Z,102321.16
2022-09-22T11:07:24.920Z,102376.69
2022-09-22T11:10:02.839Z,102380.16
2022-09-22T11:12:45.129Z,102390.69
2022-09-22T11:15:41.403Z,102379.56
2022-09-22T11:18:27.913Z,102348.13
2022-09-22T11:21:05.101Z,102370.66
2022-09-22T11:23:59.765Z,102372.06
2022-09-22T11:26:45.899Z,102368.22
2022-09-22T11:29:48.090Z,102365.03
2022-09-22T11:32:31.080Z,102362.06
2022-09-22T11:35:21.001Z,102358.97
2022-09-22T11:38:02.489Z,102344.06
2022-09-22T11:41:03.484Z,102348.78
2022-09-22T11:43:58.554Z,102345.34
2022-09-22T11:46:37.800Z,102341.75
2022-09-22T11:49:15.544Z,102347.91
2022-09-22T11:51:58.253Z,102341.91
2022-09-22T11:54:46.844Z,102225.53
2022-09-22T11:57:21.424Z,102255.72
2022-09-22T11:59:53.502Z,102339.34
2022-09-22T12:02:26.087Z,102257.88
2022-09-22T12:04:59.247Z,102250.22
2022-09-22T12:07:30.090Z,102257.00
2022-09-22T12:10:02.811Z,102248.63
2022-09-22T12:12:33.325Z,102265.84
2022-09-22T12:15:07.563Z,102179.97
2022-09-22T12:17:41.046Z,102308.47
2022-09-22T12:20:21.543Z,102166.94
2022-09-22T12:23:25.385Z,102255.06
2022-09-22T12:25:54.449Z,102213.50
2022-09-22T12:28:25.682Z,102309.56
2022-09-22T12:30:58.987Z,102303.88
2022-09-22T12:33:27.042Z,102285.47
2022-09-22T12:35:56.804Z,102288.31
2022-09-22T12:38:24.650Z,102290.41
2022-09-22T12:40:54.422Z,102295.06
2022-09-22T12:43:23.671Z,102269.38
2022-09-22T12:45:54.130Z,102287.19
2022-09-22T12:48:23.725Z,102254.34
2022-09-22T12:50:50.869Z,102272.59
2022-09-22T12:53:25.851Z,102281.50
2022-09-22T12:55:53.640Z,102266.09
2022-09-22T12:58:41.691Z,102272.25
2022-09-22T13:01:42.271Z,102262.59
2022-09-22T13:04:17.588Z,102265.22
2022-09-22T13:06:55.453Z,102243.94
2022-09-22T13:09:25.062Z,102259.47
2022-09-22T13:12:21.336Z,102252.63
2022-09-22T13:15:16.250Z,102249.56
2022-09-22T13:17:46.375Z,102254.06
2022-09-22T13:20:18.605Z,102242.31
2022-09-22T13:22:45.600Z,102254.16
2022-09-22T13:25:26.994Z,102232.28
2022-09-22T13:28:04.035Z,102239.91
2022-09-22T13:30:32.390Z,102236.59
2022-09-22T13:33:00.839Z,102192.63
2022-09-22T13:35:30.596Z,102242.56
2022-09-22T13:38:00.463Z,102233.72
2022-09-22T13:40:29.223Z,102221.44
2022-09-22T13:43:00.150Z,102215.25
2022-09-22T13:45:27.047Z,102227.28
2022-09-22T13:48:03.643Z,102220.84
2022-09-22T13:50:39.991Z,102212.78
2022-09-22T13:53:07.365Z,102185.78
2022-09-22T13:55:35.992Z,102199.16
2022-09-22T13:58:04.139Z,102188.34
2022-09-22T14:01:01.417Z,102208.91
2022-09-22T14:03:36.582Z,102178.75
2022-09-22T14:06:04.444Z,102200.19
2022-09-22T14:08:32.812Z,102195.16
2022-09-22T14:11:00.778Z,102200.28
2022-09-22T14:13:44.856Z,102192.44
2022-09-22T14:16:23.406Z,102186.69
2022-09-22T14:18:59.622Z,102183.09
2022-09-22T14:21:26.461Z,102182.31
2022-09-22T14:23:53.229Z,102182.97
2022-09-22T14:26:28.439Z,102145.78
2022-09-22T14:28:56.540Z,102185.72
2022-09-22T14:31:27.716Z,102180.03
2022-09-22T14:33:57.028Z,102183.28
2022-09-22T14:36:25.573Z,102185.38
2022-09-22T14:39:10.334Z,102186.38
2022-09-22T14:41:39.500Z,102177.59
2022-09-22T14:44:23.520Z,102158.66
2022-09-22T14:46:54.716Z,102176.19
2022-09-22T14:49:36.770Z,102180.19
2022-09-22T14:52:05.734Z,102153.59
2022-09-22T14:54:33.871Z,102172.72
2022-09-22T14:57:05.547Z,102170.78
2022-09-22T14:59:35.921Z,102164.09
2022-09-22T15:02:10.747Z,102149.44
2022-09-22T15:04:54.336Z,102022.69
2022-09-22T15:07:29.278Z,102090.78
2022-09-22T15:10:32.003Z,102150.44
2022-09-22T15:13:28.638Z,102024.59
2022-09-22T15:15:59.166Z,102012.59
2022-09-22T15:18:30.948Z,102085.16
2022-09-22T15:21:15.256Z,102061.59
2022-09-22T15:23:50.371Z,102076.53
2022-09-22T15:26:25.243Z,102120.88
2022-09-22T15:28:59.513Z,102112.16
2022-09-22T15:31:30.410Z,102025.63
2022-09-22T15:37:02.770Z,102065.22
2022-09-22T15:39:30.609Z,102066.84
2022-09-22T15:42:00.833Z,102147.88
2022-09-22T15:44:34.011Z,102027.66
2022-09-22T15:47:01.062Z,102067.41
2022-09-22T15:49:38.353Z,102126.38
2022-09-22T15:52:10.215Z,101992.16
2022-09-22T15:54:37.062Z,102071.34
2022-09-22T15:57:08.543Z,102142.22
2022-09-22T15:59:37.019Z,102009.00
2022-09-22T16:02:10.732Z,102124.97
2022-09-22T16:05:01.498Z,102064.78
2022-09-22T16:07:30.012Z,102014.03
2022-09-22T16:09:56.765Z,101989.59
2022-09-22T16:15:30.470Z,102088.22
2022-09-22T16:17:57.154Z,102021.47
2022-09-22T16:20:23.949Z,101948.81
2022-09-22T16:22:52.374Z,102030.78
2022-09-22T16:25:19.416Z,101974.97
2022-09-22T16:27:46.134Z,101996.53
2022-09-22T16:30:15.295Z,102020.50
2022-09-22T16:32:42.050Z,102029.44
2022-09-22T16:35:09.643Z,102110.91
2022-09-22T16:37:36.375Z,102112.19
2022-09-22T16:40:05.918Z,102110.13
2022-09-22T16:42:32.622Z,102116.28
2022-09-22T16:44:59.853Z,102107.09
2022-09-22T16:47:26.667Z,102112.53
2022-09-22T16:49:53.331Z,102113.22
2022-09-22T16:52:20.018Z,102111.50
2022-09-22T16:54:46.820Z,102112.47
2022-09-22T16:57:20.298Z,102110.19
2022-09-22T16:59:47.036Z,101979.63
2022-09-22T17:02:14.364Z,101928.91
2022-09-22T17:04:54.275Z,102076.16
2022-09-22T17:07:24.420Z,102094.06
2022-09-22T17:09:54.233Z,101938.06
2022-09-22T17:12:25.738Z,101985.03
2022-09-22T17:14:52.345Z,102117.47
2022-09-22T17:17:19.117Z,101976.00
2022-09-22T17:19:45.758Z,101962.44
2022-09-22T17:22:12.549Z,102032.63
2022-09-22T17:24:39.389Z,102058.28
2022-09-22T17:27:06.230Z,102094.84
2022-09-22T17:29:34.896Z,102102.50
2022-09-22T17:32:12.191Z,102102.84
2022-09-22T17:34:39.475Z,102093.63
2022-09-22T17:37:06.356Z,102099.13
2022-09-22T17:39:36.261Z,101992.13
2022-09-22T17:42:03.289Z,102089.09
2022-09-22T17:44:42.155Z,102057.25
2022-09-22T17:47:09.034Z,101994.59
2022-09-22T17:49:36.361Z,102039.56
2022-09-22T17:52:08.154Z,102087.50
2022-09-22T17:54:36.971Z,102044.75
2022-09-22T17:57:04.931Z,102079.91
2022-09-22T17:59:31.723Z,101994.88
2022-09-22T18:02:00.352Z,102097.09
2022-09-22T18:04:28.257Z,102087.56
2022-09-22T18:07:18.039Z,102087.56
2022-09-22T18:09:46.570Z,101897.50
2022-09-22T18:12:16.571Z,101902.13
2022-09-22T18:14:46.041Z,102097.59
2022-09-22T18:17:18.341Z,101938.56
2022-09-22T18:19:45.929Z,101985.97
2022-09-22T18:22:15.241Z,102002.91
2022-09-22T18:24:42.175Z,101890.97
2022-09-22T18:27:18.358Z,102085.19
2022-09-22T18:29:45.320Z,102074.81
2022-09-22T18:32:12.767Z,102023.47
2022-09-22T18:34:41.030Z,101897.41
2022-09-22T18:37:07.732Z,101978.09
2022-09-22T18:39:34.739Z,102085.63
2022-09-22T18:42:02.056Z,102070.84
2022-09-22T18:44:29.303Z,102011.31
2022-09-22T18:46:56.419Z,102094.56
2022-09-22T18:49:23.205Z,102090.75
2022-09-22T18:51:52.974Z,102080.63
2022-09-22T18:54:20.837Z,102089.34
2022-09-22T18:56:48.915Z,102087.13
2022-09-22T18:59:17.881Z,102014.72
2022-09-22T19:01:45.220Z,102092.28
2022-09-22T19:04:14.324Z,102000.22
2022-09-22T19:06:40.992Z,101982.34
2022-09-22T19:09:09.235Z,102091.88
2022-09-22T19:11:36.076Z,102097.84
2022-09-22T19:14:02.675Z,102090.72
2022-09-22T19:16:29.662Z,102078.94
2022-09-22T19:18:56.242Z,102087.44
2022-09-22T19:21:22.858Z,102072.13
2022-09-22T19:23:49.768Z,102096.63
2022-09-22T19:26:19.332Z,102081.91
2022-09-22T19:28:45.931Z,102067.34
2022-09-22T19:31:12.903Z,102002.28
2022-09-22T19:33:39.663Z,102099.75
2022-09-22T19:36:06.823Z,102056.06
2022-09-22T19:38:34.835Z,102090.41
2022-09-22T19:41:01.546Z,101990.94
2022-09-22T19:43:29.715Z,102079.78
2022-09-22T19:45:56.984Z,102025.31
2022-09-22T19:48:24.377Z,102088.13
2022-09-22T19:50:51.210Z,102083.47
2022-09-22T19:53:20.563Z,102082.09
2022-09-22T19:55:47.241Z,102060.78
2022-09-22T19:58:14.020Z,102050.94
2022-09-22T20:00:42.151Z,102072.25
2022-09-22T20:03:10.354Z,102048.16
2022-09-22T20:05:40.005Z,101944.78
2022-09-22T20:08:08.971Z,101937.16
2022-09-22T20:10:35.758Z,102068.03
2022-09-22T20:13:02.462Z,102050.81
2022-09-22T20:15:29.263Z,101994.19
2022-09-22T20:17:58.209Z,101952.66
2022-09-22T20:20:25.750Z,101934.28
2022-09-22T20:22:59.802Z,101983.50
2022-09-22T20:25:30.316Z,101973.34
2022-09-22T20:27:58.900Z,101885.69
2022-09-22T20:30:25.513Z,102023.59
2022-09-22T20:32:52.814Z,102052.38
2022-09-22T20:35:21.021Z,102059.44
2022-09-22T20:37:47.683Z,102051.81
2022-09-22T20:40:16.538Z,101957.66
2022-09-22T20:42:43.619Z,101990.06
2022-09-22T20:45:11.215Z,102047.97
2022-09-22T20:47:37.975Z,102051.78
2022-09-22T20:50:05.932Z,102014.00
2022-09-22T20:52:34.476Z,102049.31
2022-09-22T20:55:01.220Z,102036.94
2022-09-22T20:57:28.483Z,102045.97
2022-09-22T20:59:55.148Z,102046.25
2022-09-22T21:02:21.873Z,102025.44
2022-09-22T21:04:49.074Z,102041.31
2022-09-22T21:07:16.103Z,102037.78
2022-09-22T21:09:44.884Z,102029.28
2022-09-22T21:12:14.101Z,102019.19
2022-09-22T21:14:40.953Z,102032.03
2022-09-22T21:17:09.095Z,101969.75
2022-09-22T21:19:36.079Z,102028.75
2022-09-22T21:22:03.159Z,101897.53
2022-09-22T21:24:33.354Z,102023.84
2022-09-22T21:27:02.815Z,101891.09
2022-09-22T21:29:31.541Z,102019.75
2022-09-22T21:31:59.661Z,101950.91
2022-09-22T21:34:26.489Z,101955.84
2022-09-22T21:36:53.174Z,101862.59
2022-09-22T21:39:19.853Z,101864.81
2022-09-22T21:41:46.618Z,101925.91
2022-09-22T21:44:14.814Z,101834.25
2022-09-22T21:46:41.682Z,101901.44
2022-09-22T21:49:09.258Z,101980.69
2022-09-22T21:51:37.247Z,102009.63
2022-09-22T21:54:05.405Z,102003.63
2022-09-22T21:56:33.806Z,102004.94
2022-09-22T21:59:00.856Z,101967.00
2022-09-22T22:01:30.678Z,101983.69
2022-09-22T22:03:59.074Z,101991.59
2022-09-22T22:06:27.473Z,101991.25
2022-09-22T22:08:56.366Z,101987.16
2022-09-22T22:11:24.990Z,101976.84
2022-09-22T22:13:54.549Z,101982.75
2022-09-22T22:16:23.299Z,101938.22
2022-09-22T22:18:52.036Z,101941.75
2022-09-22T22:21:21.480Z,101976.72
2022-09-22T22:23:50.178Z,101970.72
2022-09-22T22:26:19.420Z,101976.66
2022-09-22T22:28:48.329Z,101975.25
2022-09-22T22:31:17.307Z,101975.75
2022-09-22T22:33:45.360Z,101973.31
2022-09-22T22:36:15.930Z,101967.56
2022-09-22T22:38:44.124Z,101963.66
2022-09-22T22:41:17.274Z,101943.16
2022-09-22T22:43:44.760Z,101972.88
2022-09-22T22:46:12.429Z,101975.34
2022-09-22T22:48:39.301Z,101975.81
2022-09-22T22:51:07.966Z,101971.47
2022-09-22T22:53:35.988Z,101966.56
2022-09-22T22:56:05.117Z,101965.16
2022-09-22T22:58:35.348Z,101954.56
2022-09-22T23:01:03.653Z,101934.00
2022-09-22T23:03:30.561Z,101815.22
2022-09-22T23:05:58.189Z,101952.03
2022-09-22T23:08:25.962Z,101804.00
2022-09-22T23:11:00.993Z,101955.06
2022-09-22T23:13:28.105Z,101776.47
2022-09-22T23:16:02.912Z,101837.59
2022-09-22T23:18:30.871Z,101844.09
2022-09-22T23:20:57.751Z,101926.94
2022-09-22T23:23:24.677Z,101921.22
2022-09-22T23:25:51.825Z,101940.31
2022-09-22T23:28:20.425Z,101932.19
2022-09-22T23:30:47.489Z,101935.97
2022-09-22T23:33:14.353Z,101849.94
2022-09-22T23:35:41.223Z,101925.38
2022-09-22T23:38:09.173Z,101911.44
2022-09-22T23:40:36.039Z,101909.81
2022-09-22T23:43:03.495Z,101919.09
2022-09-22T23:45:31.830Z,101911.94
2022-09-22T23:47:59.782Z,101913.34
2022-09-22T23:50:26.395Z,101915.25
2022-09-22T23:52:53.099Z,101907.59
2022-09-22T23:55:20.057Z,101909.75
2022-09-22T23:57:47.404Z,101865.97
